Spirit of St Louis Airport
KSUS : now visible

Airfield :











YOU CAN JOIN US ON...

 
LOGIN :

Register | Disclaimer

   EN    FR    IT 

 









Legend :    VFR   Marginal VFR   IFR   Intensive IFR   Very Intensive IFR
Visi :
Ceiling :
>= 8 km
>= 3000ft
5 to 8 km
1000 to 3000 ft
1500m to 5 km
500 to 1000 ft
800 to 1500m
200 to 500 ft
< 800m
< 200 ft
Symbols :   Thunderstorms  Fog  Heavy snow  Heavy precipitations  Wind > 20 kt







- Airport Elevation : 463 ft


KSUS - Spirit of St Louis

CURRENT METAR :
  • 201454Z 00000KT 10SM CLR 28/22 A3011 RMK AO2 SLP186 T02780217 53009

EXPIRED METARs :
  • 201354Z VRB04KT 9SM CLR 26/21 A3009 RMK AO2 SLP181 T02560211

TAF KSUS
Valid from the 20 at 15:00 until the 21 at 12:00 UTC


201526Z 2015/2112 VRB03KT P6SM FEW250
FM201700 17008KT P6SM FEW250
FM210800 18007KT P6SM BKN070
No reported NOTAMs for that airfield.



MET'MAP, your aeronautical weather chart ! - Copyright ORBIFLY December 2007 - Disclaimer

ORBIFLY MET'MAP TEAM :

Programming & Development : Alexandra Zaïnal
Concept & Development : Baudouin d'Aumeries
Co-Development & Prog : Marc-Olivier Méhu
Technical & hardware support : Manuel Goepfert

Contact : metmap@orbifly.com




SOURCES & CREDITS :

   NOAA       Earth
Advisory